sensor_id;sensor_type;location;lat;lon;timestamp;P1;durP1;ratioP1;P2;durP2;ratioP2
62707;SDS011;48769;51.624;5.886;2022-07-06T00:00:46;4.03;;;3.28;;
62707;SDS011;48769;51.624;5.886;2022-07-06T00:03:12;5.38;;;3.13;;
62707;SDS011;48769;51.624;5.886;2022-07-06T00:05:37;7.90;;;3.53;;
62707;SDS011;48769;51.624;5.886;2022-07-06T00:08:02;5.13;;;3.15;;
62707;SDS011;48769;51.624;5.886;2022-07-06T00:10:28;8.50;;;3.60;;
62707;SDS011;48769;51.624;5.886;2022-07-06T00:12:53;4.28;;;3.40;;
62707;SDS011;48769;51.624;5.886;2022-07-06T00:15:18;7.45;;;4.18;;
62707;SDS011;48769;51.624;5.886;2022-07-06T00:17:44;6.80;;;3.70;;
62707;SDS011;48769;51.624;5.886;2022-07-06T00:20:09;5.80;;;3.00;;
62707;SDS011;48769;51.624;5.886;2022-07-06T00:22:35;6.15;;;3.58;;
62707;SDS011;48769;51.624;5.886;2022-07-06T00:25:00;8.00;;;4.00;;
62707;SDS011;48769;51.624;5.886;2022-07-06T00:27:25;6.60;;;3.80;;
62707;SDS011;48769;51.624;5.886;2022-07-06T00:29:51;4.20;;;3.60;;
62707;SDS011;48769;51.624;5.886;2022-07-06T00:32:16;5.68;;;3.60;;
62707;SDS011;48769;51.624;5.886;2022-07-06T00:34:41;4.90;;;3.97;;
62707;SDS011;48769;51.624;5.886;2022-07-06T00:37:07;11.63;;;3.67;;
62707;SDS011;48769;51.624;5.886;2022-07-06T00:39:33;7.15;;;4.32;;
62707;SDS011;48769;51.624;5.886;2022-07-06T00:41:58;8.75;;;4.30;;
62707;SDS011;48769;51.624;5.886;2022-07-06T00:44:24;9.63;;;4.68;;
62707;SDS011;48769;51.624;5.886;2022-07-06T00:46:49;9.38;;;4.47;;
62707;SDS011;48769;51.624;5.886;2022-07-06T00:49:15;5.72;;;4.40;;
62707;SDS011;48769;51.624;5.886;2022-07-06T00:51:59;5.25;;;4.70;;
62707;SDS011;48769;51.624;5.886;2022-07-06T00:54:25;5.30;;;3.75;;
62707;SDS011;48769;51.624;5.886;2022-07-06T00:56:53;5.72;;;4.50;;
62707;SDS011;48769;51.624;5.886;2022-07-06T00:59:19;8.43;;;5.03;;
62707;SDS011;48769;51.624;5.886;2022-07-06T01:01:45;8.65;;;5.30;;
62707;SDS011;48769;51.624;5.886;2022-07-06T01:04:10;8.57;;;4.90;;
62707;SDS011;48769;51.624;5.886;2022-07-06T01:06:35;10.88;;;5.22;;
62707;SDS011;48769;51.624;5.886;2022-07-06T01:09:02;6.75;;;5.43;;
62707;SDS011;48769;51.624;5.886;2022-07-06T01:11:30;8.55;;;5.45;;
62707;SDS011;48769;51.624;5.886;2022-07-06T01:13:56;9.50;;;5.32;;
62707;SDS011;48769;51.624;5.886;2022-07-06T01:16:22;8.35;;;5.22;;
62707;SDS011;48769;51.624;5.886;2022-07-06T01:18:48;7.47;;;5.05;;
62707;SDS011;48769;51.624;5.886;2022-07-06T01:21:14;8.05;;;5.78;;
62707;SDS011;48769;51.624;5.886;2022-07-06T01:23:40;7.65;;;5.88;;
62707;SDS011;48769;51.624;5.886;2022-07-06T01:26:14;9.68;;;6.25;;
62707;SDS011;48769;51.624;5.886;2022-07-06T01:28:45;10.95;;;5.82;;
62707;SDS011;48769;51.624;5.886;2022-07-06T01:31:15;9.88;;;5.57;;
62707;SDS011;48769;51.624;5.886;2022-07-06T01:33:43;10.70;;;6.00;;
62707;SDS011;48769;51.624;5.886;2022-07-06T01:36:08;8.25;;;5.38;;
62707;SDS011;48769;51.624;5.886;2022-07-06T01:38:47;9.60;;;5.68;;
62707;SDS011;48769;51.624;5.886;2022-07-06T01:41:13;8.40;;;5.63;;
62707;SDS011;48769;51.624;5.886;2022-07-06T01:43:39;8.25;;;5.22;;
62707;SDS011;48769;51.624;5.886;2022-07-06T01:46:05;7.38;;;5.97;;
62707;SDS011;48769;51.624;5.886;2022-07-06T01:48:31;9.50;;;5.97;;
62707;SDS011;48769;51.624;5.886;2022-07-06T01:50:56;9.50;;;5.68;;
62707;SDS011;48769;51.624;5.886;2022-07-06T01:53:21;14.20;;;5.93;;
62707;SDS011;48769;51.624;5.886;2022-07-06T01:55:47;10.57;;;6.03;;
62707;SDS011;48769;51.624;5.886;2022-07-06T01:58:12;7.45;;;5.85;;
62707;SDS011;48769;51.624;5.886;2022-07-06T02:00:37;9.48;;;6.13;;
62707;SDS011;48769;51.624;5.886;2022-07-06T02:03:03;7.75;;;5.97;;
62707;SDS011;48769;51.624;5.886;2022-07-06T02:05:28;10.93;;;5.75;;
62707;SDS011;48769;51.624;5.886;2022-07-06T02:07:53;7.30;;;6.05;;
62707;SDS011;48769;51.624;5.886;2022-07-06T02:10:19;10.02;;;6.93;;
62707;SDS011;48769;51.624;5.886;2022-07-06T02:12:44;8.85;;;6.18;;
62707;SDS011;48769;51.624;5.886;2022-07-06T02:15:10;11.98;;;6.72;;
62707;SDS011;48769;51.624;5.886;2022-07-06T02:17:35;10.52;;;5.85;;
62707;SDS011;48769;51.624;5.886;2022-07-06T02:20:00;11.07;;;6.18;;
62707;SDS011;48769;51.624;5.886;2022-07-06T02:22:26;9.10;;;6.00;;
62707;SDS011;48769;51.624;5.886;2022-07-06T02:24:51;7.50;;;5.97;;
62707;SDS011;48769;51.624;5.886;2022-07-06T02:27:16;8.93;;;6.45;;
62707;SDS011;48769;51.624;5.886;2022-07-06T02:29:42;12.35;;;6.47;;
62707;SDS011;48769;51.624;5.886;2022-07-06T02:32:07;12.35;;;6.40;;
62707;SDS011;48769;51.624;5.886;2022-07-06T02:34:33;12.10;;;7.18;;
62707;SDS011;48769;51.624;5.886;2022-07-06T02:36:58;10.80;;;6.68;;
62707;SDS011;48769;51.624;5.886;2022-07-06T02:39:25;10.57;;;6.70;;
62707;SDS011;48769;51.624;5.886;2022-07-06T02:41:50;14.10;;;7.45;;
62707;SDS011;48769;51.624;5.886;2022-07-06T02:44:15;10.02;;;6.65;;
62707;SDS011;48769;51.624;5.886;2022-07-06T02:46:41;11.52;;;6.60;;
62707;SDS011;48769;51.624;5.886;2022-07-06T02:49:06;11.10;;;6.82;;
62707;SDS011;48769;51.624;5.886;2022-07-06T02:51:31;10.45;;;7.28;;
62707;SDS011;48769;51.624;5.886;2022-07-06T02:53:57;10.02;;;6.85;;
62707;SDS011;48769;51.624;5.886;2022-07-06T02:56:22;9.15;;;7.05;;
62707;SDS011;48769;51.624;5.886;2022-07-06T02:58:47;9.73;;;6.13;;
62707;SDS011;48769;51.624;5.886;2022-07-06T03:01:12;8.63;;;6.60;;
62707;SDS011;48769;51.624;5.886;2022-07-06T03:03:38;11.32;;;6.40;;
62707;SDS011;48769;51.624;5.886;2022-07-06T03:06:03;14.07;;;6.65;;
62707;SDS011;48769;51.624;5.886;2022-07-06T03:08:29;7.78;;;6.22;;
62707;SDS011;48769;51.624;5.886;2022-07-06T03:10:54;10.52;;;6.15;;
62707;SDS011;48769;51.624;5.886;2022-07-06T03:13:20;10.18;;;6.22;;
62707;SDS011;48769;51.624;5.886;2022-07-06T03:15:45;8.98;;;5.80;;
62707;SDS011;48769;51.624;5.886;2022-07-06T03:18:11;10.30;;;6.28;;
62707;SDS011;48769;51.624;5.886;2022-07-06T03:20:36;9.05;;;6.70;;
62707;SDS011;48769;51.624;5.886;2022-07-06T03:23:01;9.57;;;6.55;;
62707;SDS011;48769;51.624;5.886;2022-07-06T03:25:27;10.88;;;6.45;;
62707;SDS011;48769;51.624;5.886;2022-07-06T03:27:52;9.77;;;6.03;;
62707;SDS011;48769;51.624;5.886;2022-07-06T03:30:17;7.57;;;5.53;;
62707;SDS011;48769;51.624;5.886;2022-07-06T03:32:43;10.32;;;6.63;;
62707;SDS011;48769;51.624;5.886;2022-07-06T03:35:08;12.40;;;6.32;;
62707;SDS011;48769;51.624;5.886;2022-07-06T03:37:34;11.40;;;5.75;;
62707;SDS011;48769;51.624;5.886;2022-07-06T03:39:59;7.68;;;5.13;;
62707;SDS011;48769;51.624;5.886;2022-07-06T03:42:24;8.30;;;5.30;;
62707;SDS011;48769;51.624;5.886;2022-07-06T03:44:49;9.07;;;6.13;;
62707;SDS011;48769;51.624;5.886;2022-07-06T03:47:15;11.20;;;5.78;;
62707;SDS011;48769;51.624;5.886;2022-07-06T03:49:40;6.43;;;5.70;;
62707;SDS011;48769;51.624;5.886;2022-07-06T03:52:05;12.10;;;6.07;;
62707;SDS011;48769;51.624;5.886;2022-07-06T03:54:31;11.27;;;6.68;;
62707;SDS011;48769;51.624;5.886;2022-07-06T03:56:56;10.95;;;5.82;;
62707;SDS011;48769;51.624;5.886;2022-07-06T03:59:21;7.53;;;5.00;;
62707;SDS011;48769;51.624;5.886;2022-07-06T04:01:47;10.60;;;6.35;;
62707;SDS011;48769;51.624;5.886;2022-07-06T04:04:12;9.40;;;5.88;;
62707;SDS011;48769;51.624;5.886;2022-07-06T04:06:37;10.07;;;6.22;;
62707;SDS011;48769;51.624;5.886;2022-07-06T04:09:03;9.82;;;6.28;;
62707;SDS011;48769;51.624;5.886;2022-07-06T04:11:29;10.73;;;6.35;;
62707;SDS011;48769;51.624;5.886;2022-07-06T04:13:54;9.63;;;6.53;;
62707;SDS011;48769;51.624;5.886;2022-07-06T04:16:20;9.27;;;6.55;;
62707;SDS011;48769;51.624;5.886;2022-07-06T04:18:45;7.80;;;6.35;;
62707;SDS011;48769;51.624;5.886;2022-07-06T04:21:11;12.15;;;6.28;;
62707;SDS011;48769;51.624;5.886;2022-07-06T04:23:36;10.98;;;7.07;;
62707;SDS011;48769;51.624;5.886;2022-07-06T04:26:01;10.20;;;6.75;;
62707;SDS011;48769;51.624;5.886;2022-07-06T04:28:27;11.55;;;6.63;;
62707;SDS011;48769;51.624;5.886;2022-07-06T04:30:52;9.88;;;6.30;;
62707;SDS011;48769;51.624;5.886;2022-07-06T04:33:17;10.80;;;6.72;;
62707;SDS011;48769;51.624;5.886;2022-07-06T04:35:43;7.60;;;6.68;;
62707;SDS011;48769;51.624;5.886;2022-07-06T04:38:08;12.63;;;6.72;;
62707;SDS011;48769;51.624;5.886;2022-07-06T04:40:33;9.43;;;6.57;;
62707;SDS011;48769;51.624;5.886;2022-07-06T04:42:59;8.35;;;5.78;;
62707;SDS011;48769;51.624;5.886;2022-07-06T04:45:24;13.25;;;7.47;;
62707;SDS011;48769;51.624;5.886;2022-07-06T04:47:50;11.30;;;6.57;;
62707;SDS011;48769;51.624;5.886;2022-07-06T04:50:15;12.70;;;6.55;;
62707;SDS011;48769;51.624;5.886;2022-07-06T04:52:40;12.02;;;7.00;;
62707;SDS011;48769;51.624;5.886;2022-07-06T04:55:06;9.80;;;5.45;;
62707;SDS011;48769;51.624;5.886;2022-07-06T04:57:33;7.80;;;5.85;;
62707;SDS011;48769;51.624;5.886;2022-07-06T04:59:59;12.15;;;6.32;;
62707;SDS011;48769;51.624;5.886;2022-07-06T05:02:25;11.48;;;6.72;;
62707;SDS011;48769;51.624;5.886;2022-07-06T05:04:50;12.63;;;6.15;;
62707;SDS011;48769;51.624;5.886;2022-07-06T05:07:16;8.85;;;5.40;;
62707;SDS011;48769;51.624;5.886;2022-07-06T05:09:41;9.65;;;5.38;;
62707;SDS011;48769;51.624;5.886;2022-07-06T05:12:07;10.68;;;5.72;;
62707;SDS011;48769;51.624;5.886;2022-07-06T05:14:33;8.50;;;5.40;;
62707;SDS011;48769;51.624;5.886;2022-07-06T05:16:58;13.27;;;6.28;;
62707;SDS011;48769;51.624;5.886;2022-07-06T05:19:24;12.40;;;6.03;;
62707;SDS011;48769;51.624;5.886;2022-07-06T05:21:49;22.33;;;6.43;;
62707;SDS011;48769;51.624;5.886;2022-07-06T05:24:14;12.57;;;6.30;;
62707;SDS011;48769;51.624;5.886;2022-07-06T05:26:40;10.23;;;6.20;;
62707;SDS011;48769;51.624;5.886;2022-07-06T05:29:06;12.35;;;6.50;;
62707;SDS011;48769;51.624;5.886;2022-07-06T05:31:31;8.75;;;6.05;;
62707;SDS011;48769;51.624;5.886;2022-07-06T05:33:56;13.45;;;6.07;;
62707;SDS011;48769;51.624;5.886;2022-07-06T05:36:22;12.65;;;6.05;;
62707;SDS011;48769;51.624;5.886;2022-07-06T05:38:47;10.45;;;6.30;;
62707;SDS011;48769;51.624;5.886;2022-07-06T05:41:12;8.48;;;6.18;;
62707;SDS011;48769;51.624;5.886;2022-07-06T05:43:38;9.98;;;6.13;;
62707;SDS011;48769;51.624;5.886;2022-07-06T05:46:03;11.30;;;5.20;;
62707;SDS011;48769;51.624;5.886;2022-07-06T05:48:29;9.50;;;6.50;;
62707;SDS011;48769;51.624;5.886;2022-07-06T05:51:13;10.38;;;6.22;;
62707;SDS011;48769;51.624;5.886;2022-07-06T05:53:39;12.30;;;6.35;;
62707;SDS011;48769;51.624;5.886;2022-07-06T05:56:04;10.98;;;5.93;;
62707;SDS011;48769;51.624;5.886;2022-07-06T05:58:29;10.35;;;6.03;;
62707;SDS011;48769;51.624;5.886;2022-07-06T06:00:55;9.20;;;5.82;;
62707;SDS011;48769;51.624;5.886;2022-07-06T06:03:20;8.80;;;5.40;;
62707;SDS011;48769;51.624;5.886;2022-07-06T06:05:46;8.23;;;5.45;;
62707;SDS011;48769;51.624;5.886;2022-07-06T06:08:11;12.57;;;5.65;;
62707;SDS011;48769;51.624;5.886;2022-07-06T06:10:37;12.30;;;5.75;;
62707;SDS011;48769;51.624;5.886;2022-07-06T06:13:02;10.38;;;6.10;;
62707;SDS011;48769;51.624;5.886;2022-07-06T06:15:28;9.52;;;5.97;;
62707;SDS011;48769;51.624;5.886;2022-07-06T06:17:54;8.93;;;5.80;;
62707;SDS011;48769;51.624;5.886;2022-07-06T06:20:19;11.43;;;5.93;;
62707;SDS011;48769;51.624;5.886;2022-07-06T06:22:45;7.72;;;5.13;;
62707;SDS011;48769;51.624;5.886;2022-07-06T06:25:19;8.75;;;4.97;;
62707;SDS011;48769;51.624;5.886;2022-07-06T06:27:46;6.75;;;4.15;;
62707;SDS011;48769;51.624;5.886;2022-07-06T06:30:12;8.40;;;4.47;;
62707;SDS011;48769;51.624;5.886;2022-07-06T06:32:38;6.88;;;4.30;;
62707;SDS011;48769;51.624;5.886;2022-07-06T06:35:04;7.20;;;4.88;;
62707;SDS011;48769;51.624;5.886;2022-07-06T06:37:30;5.50;;;4.07;;
62707;SDS011;48769;51.624;5.886;2022-07-06T06:39:55;10.30;;;3.70;;
62707;SDS011;48769;51.624;5.886;2022-07-06T06:42:21;6.57;;;3.78;;
62707;SDS011;48769;51.624;5.886;2022-07-06T06:44:46;8.95;;;3.90;;
62707;SDS011;48769;51.624;5.886;2022-07-06T06:47:11;6.50;;;3.53;;
62707;SDS011;48769;51.624;5.886;2022-07-06T06:49:37;6.40;;;3.35;;
62707;SDS011;48769;51.624;5.886;2022-07-06T06:52:02;5.22;;;3.00;;
62707;SDS011;48769;51.624;5.886;2022-07-06T06:54:27;4.47;;;3.13;;
62707;SDS011;48769;51.624;5.886;2022-07-06T06:56:53;5.72;;;3.05;;
62707;SDS011;48769;51.624;5.886;2022-07-06T06:59:18;5.07;;;3.17;;
62707;SDS011;48769;51.624;5.886;2022-07-06T07:01:43;7.22;;;3.15;;
62707;SDS011;48769;51.624;5.886;2022-07-06T07:04:09;6.32;;;2.47;;
62707;SDS011;48769;51.624;5.886;2022-07-06T07:06:34;5.18;;;1.60;;
62707;SDS011;48769;51.624;5.886;2022-07-06T07:08:59;4.93;;;1.77;;
62707;SDS011;48769;51.624;5.886;2022-07-06T07:11:25;4.13;;;1.52;;
62707;SDS011;48769;51.624;5.886;2022-07-06T07:13:50;6.63;;;1.80;;
62707;SDS011;48769;51.624;5.886;2022-07-06T07:16:15;5.85;;;2.13;;
62707;SDS011;48769;51.624;5.886;2022-07-06T07:18:41;3.72;;;1.95;;
62707;SDS011;48769;51.624;5.886;2022-07-06T07:21:06;2.78;;;1.85;;
62707;SDS011;48769;51.624;5.886;2022-07-06T07:23:31;2.72;;;1.48;;
62707;SDS011;48769;51.624;5.886;2022-07-06T07:25:57;2.15;;;1.45;;
62707;SDS011;48769;51.624;5.886;2022-07-06T07:28:22;5.97;;;1.38;;
62707;SDS011;48769;51.624;5.886;2022-07-06T07:30:47;3.67;;;1.00;;
62707;SDS011;48769;51.624;5.886;2022-07-06T07:33:13;7.65;;;1.65;;
62707;SDS011;48769;51.624;5.886;2022-07-06T07:35:38;4.47;;;1.20;;
62707;SDS011;48769;51.624;5.886;2022-07-06T07:38:03;3.10;;;1.00;;
62707;SDS011;48769;51.624;5.886;2022-07-06T07:40:29;5.60;;;1.27;;
62707;SDS011;48769;51.624;5.886;2022-07-06T07:42:54;3.08;;;1.05;;
62707;SDS011;48769;51.624;5.886;2022-07-06T07:45:20;2.47;;;0.98;;
62707;SDS011;48769;51.624;5.886;2022-07-06T07:47:45;4.10;;;1.40;;
62707;SDS011;48769;51.624;5.886;2022-07-06T07:50:11;3.40;;;1.20;;
62707;SDS011;48769;51.624;5.886;2022-07-06T07:52:37;1.92;;;1.02;;
62707;SDS011;48769;51.624;5.886;2022-07-06T07:55:03;1.83;;;0.80;;
62707;SDS011;48769;51.624;5.886;2022-07-06T07:57:29;4.45;;;1.40;;
62707;SDS011;48769;51.624;5.886;2022-07-06T07:59:54;5.28;;;1.65;;
62707;SDS011;48769;51.624;5.886;2022-07-06T08:02:19;2.17;;;1.10;;
62707;SDS011;48769;51.624;5.886;2022-07-06T08:04:45;3.13;;;1.50;;
62707;SDS011;48769;51.624;5.886;2022-07-06T08:07:10;3.10;;;1.20;;
62707;SDS011;48769;51.624;5.886;2022-07-06T08:09:35;6.30;;;1.42;;
62707;SDS011;48769;51.624;5.886;2022-07-06T08:12:01;3.58;;;1.23;;
62707;SDS011;48769;51.624;5.886;2022-07-06T08:14:26;8.75;;;1.83;;
62707;SDS011;48769;51.624;5.886;2022-07-06T08:16:54;3.45;;;1.08;;
62707;SDS011;48769;51.624;5.886;2022-07-06T08:19:20;3.85;;;1.52;;
62707;SDS011;48769;51.624;5.886;2022-07-06T08:21:45;2.97;;;0.82;;
62707;SDS011;48769;51.624;5.886;2022-07-06T08:24:11;3.10;;;1.10;;
62707;SDS011;48769;51.624;5.886;2022-07-06T08:26:36;2.80;;;1.48;;
62707;SDS011;48769;51.624;5.886;2022-07-06T08:29:02;3.60;;;0.80;;
62707;SDS011;48769;51.624;5.886;2022-07-06T08:31:28;3.92;;;0.82;;
62707;SDS011;48769;51.624;5.886;2022-07-06T08:33:54;1.75;;;0.70;;
62707;SDS011;48769;51.624;5.886;2022-07-06T08:36:20;2.45;;;0.70;;
62707;SDS011;48769;51.624;5.886;2022-07-06T08:38:46;4.07;;;1.00;;
62707;SDS011;48769;51.624;5.886;2022-07-06T08:41:13;4.38;;;0.90;;
62707;SDS011;48769;51.624;5.886;2022-07-06T08:43:39;4.22;;;0.70;;
62707;SDS011;48769;51.624;5.886;2022-07-06T08:46:05;2.80;;;1.40;;
62707;SDS011;48769;51.624;5.886;2022-07-06T08:48:34;5.03;;;1.15;;
62707;SDS011;48769;51.624;5.886;2022-07-06T08:51:01;3.15;;;0.70;;
62707;SDS011;48769;51.624;5.886;2022-07-06T08:53:27;6.05;;;1.05;;
62707;SDS011;48769;51.624;5.886;2022-07-06T08:55:53;7.55;;;1.15;;
62707;SDS011;48769;51.624;5.886;2022-07-06T08:58:19;3.15;;;0.60;;
62707;SDS011;48769;51.624;5.886;2022-07-06T09:00:48;1.85;;;0.60;;
62707;SDS011;48769;51.624;5.886;2022-07-06T09:03:14;2.83;;;0.90;;
62707;SDS011;48769;51.624;5.886;2022-07-06T09:05:39;4.22;;;0.90;;
62707;SDS011;48769;51.624;5.886;2022-07-06T09:08:05;4.95;;;1.00;;
62707;SDS011;48769;51.624;5.886;2022-07-06T09:10:30;4.97;;;0.90;;
62707;SDS011;48769;51.624;5.886;2022-07-06T09:13:02;7.13;;;1.10;;
62707;SDS011;48769;51.624;5.886;2022-07-06T09:15:29;4.10;;;0.60;;
62707;SDS011;48769;51.624;5.886;2022-07-06T09:17:55;3.85;;;0.90;;
62707;SDS011;48769;51.624;5.886;2022-07-06T09:20:21;2.55;;;0.60;;
62707;SDS011;48769;51.624;5.886;2022-07-06T09:22:46;5.85;;;1.10;;
62707;SDS011;48769;51.624;5.886;2022-07-06T09:25:13;3.72;;;1.10;;
62707;SDS011;48769;51.624;5.886;2022-07-06T09:27:41;6.85;;;1.10;;
62707;SDS011;48769;51.624;5.886;2022-07-06T09:30:12;4.50;;;1.33;;
62707;SDS011;48769;51.624;5.886;2022-07-06T09:32:43;4.07;;;0.73;;
62707;SDS011;48769;51.624;5.886;2022-07-06T09:37:47;6.07;;;0.90;;
62707;SDS011;48769;51.624;5.886;2022-07-06T09:40:24;1.60;;;0.50;;
62707;SDS011;48769;51.624;5.886;2022-07-06T09:42:49;1.35;;;0.50;;
62707;SDS011;48769;51.624;5.886;2022-07-06T09:45:19;3.83;;;0.50;;
62707;SDS011;48769;51.624;5.886;2022-07-06T09:47:49;4.47;;;0.55;;
62707;SDS011;48769;51.624;5.886;2022-07-06T09:50:15;2.17;;;0.73;;
62707;SDS011;48769;51.624;5.886;2022-07-06T09:52:41;3.88;;;0.60;;
62707;SDS011;48769;51.624;5.886;2022-07-06T09:55:18;5.88;;;0.73;;
62707;SDS011;48769;51.624;5.886;2022-07-06T09:57:53;5.63;;;1.05;;
62707;SDS011;48769;51.624;5.886;2022-07-06T10:00:20;2.65;;;0.60;;
62707;SDS011;48769;51.624;5.886;2022-07-06T10:02:45;1.45;;;0.68;;
62707;SDS011;48769;51.624;5.886;2022-07-06T10:05:12;4.30;;;0.50;;
62707;SDS011;48769;51.624;5.886;2022-07-06T10:07:40;1.95;;;0.50;;
62707;SDS011;48769;51.624;5.886;2022-07-06T10:10:06;1.77;;;0.50;;
62707;SDS011;48769;51.624;5.886;2022-07-06T10:12:33;3.65;;;0.50;;
62707;SDS011;48769;51.624;5.886;2022-07-06T10:15:00;3.17;;;0.32;;
62707;SDS011;48769;51.624;5.886;2022-07-06T10:17:25;2.17;;;0.47;;
62707;SDS011;48769;51.624;5.886;2022-07-06T10:19:51;1.48;;;0.50;;
62707;SDS011;48769;51.624;5.886;2022-07-06T10:22:17;4.88;;;0.50;;
62707;SDS011;48769;51.624;5.886;2022-07-06T10:24:43;6.40;;;0.95;;
62707;SDS011;48769;51.624;5.886;2022-07-06T10:27:10;4.07;;;0.57;;
62707;SDS011;48769;51.624;5.886;2022-07-06T10:29:37;2.67;;;0.50;;
62707;SDS011;48769;51.624;5.886;2022-07-06T10:32:02;3.65;;;0.63;;
62707;SDS011;48769;51.624;5.886;2022-07-06T10:34:28;3.03;;;0.52;;
62707;SDS011;48769;51.624;5.886;2022-07-06T10:36:54;4.88;;;0.70;;
62707;SDS011;48769;51.624;5.886;2022-07-06T10:39:32;1.58;;;0.60;;
62707;SDS011;48769;51.624;5.886;2022-07-06T10:42:38;5.32;;;0.88;;
62707;SDS011;48769;51.624;5.886;2022-07-06T10:50:40;2.47;;;0.70;;
62707;SDS011;48769;51.624;5.886;2022-07-06T10:53:11;1.23;;;0.50;;
62707;SDS011;48769;51.624;5.886;2022-07-06T10:55:38;2.25;;;0.40;;
62707;SDS011;48769;51.624;5.886;2022-07-06T10:58:05;3.70;;;0.80;;
62707;SDS011;48769;51.624;5.886;2022-07-06T11:08:45;5.15;;;0.60;;
62707;SDS011;48769;51.624;5.886;2022-07-06T11:11:18;3.10;;;0.80;;
62707;SDS011;48769;51.624;5.886;2022-07-06T11:13:58;8.45;;;0.57;;
62707;SDS011;48769;51.624;5.886;2022-07-06T11:16:25;4.68;;;0.75;;
62707;SDS011;48769;51.624;5.886;2022-07-06T11:19:10;4.10;;;1.00;;
62707;SDS011;48769;51.624;5.886;2022-07-06T11:21:50;4.95;;;0.68;;
62707;SDS011;48769;51.624;5.886;2022-07-06T11:24:17;3.17;;;0.68;;
62707;SDS011;48769;51.624;5.886;2022-07-06T11:26:46;4.75;;;0.80;;
62707;SDS011;48769;51.624;5.886;2022-07-06T11:29:13;1.90;;;0.63;;
62707;SDS011;48769;51.624;5.886;2022-07-06T11:31:41;4.97;;;1.63;;
62707;SDS011;48769;51.624;5.886;2022-07-06T11:34:08;2.53;;;0.90;;
62707;SDS011;48769;51.624;5.886;2022-07-06T11:36:35;5.15;;;1.00;;
62707;SDS011;48769;51.624;5.886;2022-07-06T11:39:00;3.05;;;0.60;;
62707;SDS011;48769;51.624;5.886;2022-07-06T11:41:26;1.67;;;0.50;;
62707;SDS011;48769;51.624;5.886;2022-07-06T11:43:52;3.00;;;0.90;;
62707;SDS011;48769;51.624;5.886;2022-07-06T11:46:27;3.13;;;0.70;;
62707;SDS011;48769;51.624;5.886;2022-07-06T11:48:55;3.80;;;0.82;;
62707;SDS011;48769;51.624;5.886;2022-07-06T11:51:23;1.23;;;0.65;;
62707;SDS011;48769;51.624;5.886;2022-07-06T11:53:51;2.67;;;0.73;;
62707;SDS011;48769;51.624;5.886;2022-07-06T11:56:19;3.30;;;1.10;;
62707;SDS011;48769;51.624;5.886;2022-07-06T11:58:46;4.25;;;0.93;;
62707;SDS011;48769;51.624;5.886;2022-07-06T12:01:14;4.75;;;0.90;;
62707;SDS011;48769;51.624;5.886;2022-07-06T12:03:40;3.28;;;0.80;;
62707;SDS011;48769;51.624;5.886;2022-07-06T12:06:12;1.70;;;0.60;;
62707;SDS011;48769;51.624;5.886;2022-07-06T12:08:49;4.63;;;0.88;;
62707;SDS011;48769;51.624;5.886;2022-07-06T12:11:20;2.97;;;0.63;;
62707;SDS011;48769;51.624;5.886;2022-07-06T12:13:51;5.18;;;0.90;;
62707;SDS011;48769;51.624;5.886;2022-07-06T12:16:18;2.45;;;0.60;;
62707;SDS011;48769;51.624;5.886;2022-07-06T12:18:45;8.50;;;1.20;;
62707;SDS011;48769;51.624;5.886;2022-07-06T12:21:17;2.42;;;1.02;;
62707;SDS011;48769;51.624;5.886;2022-07-06T12:23:47;4.10;;;1.02;;
62707;SDS011;48769;51.624;5.886;2022-07-06T12:26:15;3.13;;;1.15;;
62707;SDS011;48769;51.624;5.886;2022-07-06T12:28:42;1.60;;;0.70;;
62707;SDS011;48769;51.624;5.886;2022-07-06T12:31:10;2.70;;;0.80;;
62707;SDS011;48769;51.624;5.886;2022-07-06T12:33:35;3.10;;;1.00;;
62707;SDS011;48769;51.624;5.886;2022-07-06T12:36:08;1.77;;;0.90;;
62707;SDS011;48769;51.624;5.886;2022-07-06T12:38:43;2.67;;;0.60;;
62707;SDS011;48769;51.624;5.886;2022-07-06T12:41:10;2.63;;;0.83;;
62707;SDS011;48769;51.624;5.886;2022-07-06T12:43:39;2.63;;;0.88;;
62707;SDS011;48769;51.624;5.886;2022-07-06T12:46:27;5.13;;;1.05;;
62707;SDS011;48769;51.624;5.886;2022-07-06T12:48:54;5.95;;;1.10;;
62707;SDS011;48769;51.624;5.886;2022-07-06T12:51:20;3.72;;;0.85;;
62707;SDS011;48769;51.624;5.886;2022-07-06T12:53:46;2.90;;;0.93;;
62707;SDS011;48769;51.624;5.886;2022-07-06T12:56:12;4.25;;;0.93;;
62707;SDS011;48769;51.624;5.886;2022-07-06T12:58:38;3.42;;;0.88;;
62707;SDS011;48769;51.624;5.886;2022-07-06T13:01:03;4.72;;;1.02;;
62707;SDS011;48769;51.624;5.886;2022-07-06T13:03:37;3.90;;;1.15;;
62707;SDS011;48769;51.624;5.886;2022-07-06T13:06:05;3.40;;;0.98;;
62707;SDS011;48769;51.624;5.886;2022-07-06T13:08:31;2.88;;;1.17;;
62707;SDS011;48769;51.624;5.886;2022-07-06T13:10:56;3.88;;;0.95;;
62707;SDS011;48769;51.624;5.886;2022-07-06T13:13:21;4.30;;;1.13;;
62707;SDS011;48769;51.624;5.886;2022-07-06T13:15:47;2.47;;;0.88;;
62707;SDS011;48769;51.624;5.886;2022-07-06T13:18:13;1.98;;;0.95;;
62707;SDS011;48769;51.624;5.886;2022-07-06T13:20:38;3.47;;;1.02;;
62707;SDS011;48769;51.624;5.886;2022-07-06T13:23:04;2.08;;;0.88;;
62707;SDS011;48769;51.624;5.886;2022-07-06T13:25:29;2.90;;;1.40;;
62707;SDS011;48769;51.624;5.886;2022-07-06T13:27:54;3.33;;;1.25;;
62707;SDS011;48769;51.624;5.886;2022-07-06T13:30:20;3.42;;;0.90;;
62707;SDS011;48769;51.624;5.886;2022-07-06T13:32:46;3.33;;;1.30;;
62707;SDS011;48769;51.624;5.886;2022-07-06T13:35:11;2.63;;;1.23;;
62707;SDS011;48769;51.624;5.886;2022-07-06T13:37:37;3.65;;;1.02;;
62707;SDS011;48769;51.624;5.886;2022-07-06T13:40:02;7.35;;;1.42;;
62707;SDS011;48769;51.624;5.886;2022-07-06T13:42:28;3.22;;;1.23;;
62707;SDS011;48769;51.624;5.886;2022-07-06T13:44:53;5.40;;;1.23;;
62707;SDS011;48769;51.624;5.886;2022-07-06T13:47:19;3.20;;;1.00;;
62707;SDS011;48769;51.624;5.886;2022-07-06T13:49:44;2.17;;;0.80;;
62707;SDS011;48769;51.624;5.886;2022-07-06T13:52:12;5.40;;;0.98;;
62707;SDS011;48769;51.624;5.886;2022-07-06T13:54:38;3.58;;;0.95;;
62707;SDS011;48769;51.624;5.886;2022-07-06T13:57:03;5.45;;;0.95;;
62707;SDS011;48769;51.624;5.886;2022-07-06T13:59:29;3.75;;;1.10;;
62707;SDS011;48769;51.624;5.886;2022-07-06T14:01:55;5.82;;;1.10;;
62707;SDS011;48769;51.624;5.886;2022-07-06T14:04:20;5.45;;;1.00;;
62707;SDS011;48769;51.624;5.886;2022-07-06T14:06:46;4.40;;;1.00;;
62707;SDS011;48769;51.624;5.886;2022-07-06T14:09:11;1.10;;;0.70;;
62707;SDS011;48769;51.624;5.886;2022-07-06T14:11:37;2.63;;;0.80;;
62707;SDS011;48769;51.624;5.886;2022-07-06T14:14:02;2.38;;;0.55;;
62707;SDS011;48769;51.624;5.886;2022-07-06T14:16:27;3.33;;;0.90;;
62707;SDS011;48769;51.624;5.886;2022-07-06T14:18:53;1.33;;;0.73;;
62707;SDS011;48769;51.624;5.886;2022-07-06T14:21:18;1.38;;;0.70;;
62707;SDS011;48769;51.624;5.886;2022-07-06T14:23:43;3.17;;;0.70;;
62707;SDS011;48769;51.624;5.886;2022-07-06T14:26:09;7.40;;;0.73;;
62707;SDS011;48769;51.624;5.886;2022-07-06T14:28:34;5.13;;;1.48;;
62707;SDS011;48769;51.624;5.886;2022-07-06T14:31:00;2.65;;;0.80;;
62707;SDS011;48769;51.624;5.886;2022-07-06T14:33:27;5.70;;;0.88;;
62707;SDS011;48769;51.624;5.886;2022-07-06T14:35:53;3.42;;;0.80;;
62707;SDS011;48769;51.624;5.886;2022-07-06T14:38:18;3.58;;;0.80;;
62707;SDS011;48769;51.624;5.886;2022-07-06T14:40:45;2.60;;;0.70;;
62707;SDS011;48769;51.624;5.886;2022-07-06T14:43:14;2.22;;;0.80;;
62707;SDS011;48769;51.624;5.886;2022-07-06T14:45:44;2.70;;;0.73;;
62707;SDS011;48769;51.624;5.886;2022-07-06T14:48:10;2.17;;;0.57;;
62707;SDS011;48769;51.624;5.886;2022-07-06T14:50:36;2.78;;;0.80;;
62707;SDS011;48769;51.624;5.886;2022-07-06T14:53:02;2.22;;;0.70;;
62707;SDS011;48769;51.624;5.886;2022-07-06T14:55:28;5.65;;;0.88;;
62707;SDS011;48769;51.624;5.886;2022-07-06T14:57:53;5.68;;;0.90;;